createdAt,value
2022-09-09T00:00:42.625Z,-20420.53
2022-09-09T00:03:17.896Z,-20419.63
2022-09-09T00:05:56.661Z,-20420.69
2022-09-09T00:08:37.097Z,-20421.47
2022-09-09T00:11:07.670Z,-20431.22
2022-09-09T00:13:41.358Z,-20428.47
2022-09-09T00:16:17.261Z,-20427.53
2022-09-09T00:18:54.099Z,-20429.97
2022-09-09T00:21:40.706Z,-20439.41
2022-09-09T00:24:19.216Z,-20435.31
2022-09-09T00:27:16.499Z,-20438.66
2022-09-09T00:29:58.440Z,-20440.34
2022-09-09T00:32:31.396Z,-20438.66
2022-09-09T00:35:04.252Z,-20445.19
2022-09-09T00:37:41.843Z,-20441.41
2022-09-09T00:40:24.175Z,-20438.81
2022-09-09T00:43:06.133Z,-20440.03
2022-09-09T00:45:58.670Z,-20438.66
2022-09-09T00:48:36.939Z,-20438.06
2022-09-09T00:51:12.281Z,-20446.88
2022-09-09T00:53:59.402Z,-20455.84
2022-09-09T00:56:38.215Z,-20463.00
2022-09-09T00:59:19.263Z,-20465.75
2022-09-09T01:01:47.281Z,-20464.84
2022-09-09T01:04:21.413Z,-20464.69
2022-09-09T01:07:00.110Z,-20467.13
2022-09-09T01:09:50.298Z,-20467.72
2022-09-09T01:12:44.886Z,-20468.63
2022-09-09T01:15:19.631Z,-20469.69
2022-09-09T01:17:59.032Z,-20469.25
2022-09-09T01:20:33.391Z,-20469.25
2022-09-09T01:23:28.195Z,-20471.38
2022-09-09T01:26:18.235Z,-20471.97
2022-09-09T01:28:49.890Z,-20472.75
2022-09-09T01:31:31.623Z,-20472.28
2022-09-09T01:33:59.537Z,-20471.81
2022-09-09T01:36:34.573Z,-20471.97
2022-09-09T01:39:02.331Z,-20472.13
2022-09-09T01:41:39.367Z,-20471.53
2022-09-09T01:44:23.531Z,-20470.00
2022-09-09T01:46:51.427Z,-20470.16
2022-09-09T01:50:23.080Z,-20469.84
2022-09-09T01:53:13.852Z,-20469.25
2022-09-09T01:56:18.237Z,-20468.94
2022-09-09T01:59:43.648Z,-20469.25
2022-09-09T02:02:37.696Z,-20470.47
2022-09-09T02:05:31.023Z,-20471.38
2022-09-09T02:08:07.585Z,-20471.69
2022-09-09T02:10:57.260Z,-20472.28
2022-09-09T02:13:25.537Z,-20471.97
2022-09-09T02:16:05.862Z,-20471.97
2022-09-09T02:19:25.753Z,-20469.53
2022-09-09T02:21:56.472Z,-20468.03
2022-09-09T02:24:25.818Z,-20467.56
2022-09-09T02:26:56.732Z,-20466.97
2022-09-09T02:29:28.577Z,-20466.81
2022-09-09T02:32:07.088Z,-20468.03
2022-09-09T02:34:39.454Z,-20468.34
2022-09-09T02:37:36.004Z,-20468.19
2022-09-09T02:40:04.723Z,-20465.91
2022-09-09T02:42:46.579Z,-20464.97
2022-09-09T02:45:26.139Z,-20464.84
2022-09-09T02:48:39.312Z,-20462.72
2022-09-09T02:51:21.222Z,-20462.72
2022-09-09T02:54:29.926Z,-20460.13
2022-09-09T03:00:48.903Z,-20456.31
2022-09-09T03:03:18.871Z,-20456.31
2022-09-09T03:06:08.238Z,-20452.97
2022-09-09T03:08:39.756Z,-20453.72
2022-09-09T03:11:55.618Z,-20454.34
2022-09-09T03:14:26.139Z,-20453.13
2022-09-09T03:16:55.156Z,-20451.91
2022-09-09T03:19:50.626Z,-20452.66
2022-09-09T03:22:46.131Z,-20452.34
2022-09-09T03:25:27.540Z,-20449.91
2022-09-09T03:28:16.219Z,-20447.19
2022-09-09T03:30:44.114Z,-20446.41
2022-09-09T03:33:18.332Z,-20444.00
2022-09-09T03:35:49.687Z,-20443.38
2022-09-09T03:38:24.600Z,-20440.94
2022-09-09T03:40:56.127Z,-20438.66
2022-09-09T03:43:24.165Z,-20438.66
2022-09-09T03:45:52.487Z,-20439.72
2022-09-09T03:48:25.568Z,-20438.81
2022-09-09T03:50:56.918Z,-20440.34
2022-09-09T03:53:46.836Z,-20439.41
2022-09-09T03:56:15.557Z,-20439.56
2022-09-09T03:58:49.629Z,-20439.13
2022-09-09T04:01:19.303Z,-20439.41
2022-09-09T04:03:47.539Z,-20440.19
2022-09-09T04:06:17.892Z,-20441.88
2022-09-09T04:08:50.710Z,-20443.06
2022-09-09T04:11:18.924Z,-20444.28
2022-09-09T04:13:46.612Z,-20443.22
2022-09-09T04:16:17.694Z,-20442.63
2022-09-09T04:18:45.706Z,-20445.19
2022-09-09T04:21:14.194Z,-20444.75
2022-09-09T04:23:52.530Z,-20445.19
2022-09-09T04:26:23.540Z,-20445.19
2022-09-09T04:28:51.976Z,-20446.56
2022-09-09T04:31:25.406Z,-20449.78
2022-09-09T04:33:59.609Z,-20449.31
2022-09-09T04:36:30.975Z,-20450.53
2022-09-09T04:39:08.705Z,-20449.63
2022-09-09T04:42:16.940Z,-20446.13
2022-09-09T04:45:58.069Z,-20442.47
2022-09-09T04:48:36.235Z,-20443.69
2022-09-09T04:51:05.959Z,-20441.25
2022-09-09T04:53:35.817Z,-20440.34
2022-09-09T04:59:43.555Z,-20439.72
2022-09-09T05:02:11.279Z,-20440.50
2022-09-09T05:04:38.965Z,-20439.41
2022-09-09T05:07:07.638Z,-20435.78
2022-09-09T05:09:35.685Z,-20436.69
2022-09-09T05:12:07.155Z,-20436.69
2022-09-09T05:14:37.256Z,-20435.31
2022-09-09T05:17:09.858Z,-20435.63
2022-09-09T05:19:53.519Z,-20436.38
2022-09-09T05:22:22.352Z,-20435.78
2022-09-09T05:24:52.430Z,-20436.69
2022-09-09T05:27:21.679Z,-20437.91
2022-09-09T05:29:50.568Z,-20438.50
2022-09-09T05:32:18.399Z,-20439.41
2022-09-09T05:34:46.136Z,-20437.28
2022-09-09T05:37:13.810Z,-20439.72
2022-09-09T05:39:41.793Z,-20440.50
2022-09-09T05:42:09.734Z,-20440.34
2022-09-09T05:44:39.261Z,-20441.88
2022-09-09T05:47:08.972Z,-20443.69
2022-09-09T05:49:39.269Z,-20446.88
2022-09-09T05:52:07.599Z,-20454.34
2022-09-09T05:54:35.316Z,-20462.25
2022-09-09T05:57:02.963Z,-20462.09
2022-09-09T05:59:30.728Z,-20469.38
2022-09-09T06:02:00.177Z,-20477.31
2022-09-09T06:04:28.002Z,-20483.22
2022-09-09T06:06:55.720Z,-20480.94
2022-09-09T06:09:32.479Z,-20484.75
2022-09-09T06:12:00.187Z,-20494.78
2022-09-09T06:14:28.257Z,-20497.81
2022-09-09T06:16:56.165Z,-20510.28
2022-09-09T06:19:27.769Z,-20505.88
2022-09-09T06:21:55.804Z,-20495.09
2022-09-09T06:24:23.432Z,-20507.84
2022-09-09T06:26:53.030Z,-20522.44
2022-09-09T06:29:20.836Z,-20543.97
2022-09-09T06:31:48.674Z,-20541.25
2022-09-09T06:34:16.530Z,-20564.75
2022-09-09T06:36:47.155Z,-20561.28
2022-09-09T06:39:16.376Z,-20553.53
2022-09-09T06:41:44.584Z,-20543.06
2022-09-09T06:44:13.642Z,-20547.63
2022-09-09T06:46:41.744Z,-20532.59
2022-09-09T06:49:10.056Z,-20540.03
2022-09-09T06:51:43.854Z,-20542.75
2022-09-09T06:54:14.020Z,-20548.22
2022-09-09T06:56:44.278Z,-20542.75
2022-09-09T06:59:13.413Z,-20539.72
2022-09-09T07:01:42.778Z,-20545.66
2022-09-09T07:04:11.925Z,-20553.25
2022-09-09T07:06:41.789Z,-20537.91
2022-09-09T07:09:11.907Z,-20524.09
2022-09-09T07:11:43.354Z,-20536.25
2022-09-09T07:14:13.815Z,-20528.50
2022-09-09T07:16:41.662Z,-20516.03
2022-09-09T07:19:10.420Z,-20523.50
2022-09-09T07:21:38.140Z,-20517.28
2022-09-09T07:24:08.313Z,-20525.47
2022-09-09T07:26:39.354Z,-20529.09
2022-09-09T07:29:20.605Z,-20517.28
2022-09-09T07:31:49.357Z,-20539.72
2022-09-09T07:34:17.369Z,-20548.53
2022-09-09T07:36:45.182Z,-20542.63
2022-09-09T07:39:15.364Z,-20533.06
2022-09-09T07:41:44.465Z,-20530.31
2022-09-09T07:44:18.646Z,-20525.47
2022-09-09T07:46:47.154Z,-20525.75
2022-09-09T07:49:15.623Z,-20511.50
2022-09-09T07:51:47.888Z,-20507.84
2022-09-09T07:54:20.943Z,-20506.47
2022-09-09T07:56:50.328Z,-20503.91
2022-09-09T08:02:16.848Z,-20524.09
2022-09-09T08:04:44.601Z,-20529.09
2022-09-09T08:07:13.062Z,-20530.31
2022-09-09T08:09:45.436Z,-20533.06
2022-09-09T08:12:22.524Z,-20530.63
2022-09-09T08:15:23.797Z,-20527.44
2022-09-09T08:17:51.460Z,-20525.47
2022-09-09T08:20:19.241Z,-20523.94
2022-09-09T08:22:47.094Z,-20553.53
2022-09-09T08:25:14.856Z,-20563.69
2022-09-09T08:27:43.075Z,-20574.94
2022-09-09T08:30:14.023Z,-20565.53
2022-09-09T08:32:44.856Z,-20596.28
2022-09-09T08:35:17.194Z,-20620.69
2022-09-09T08:37:44.979Z,-20609.16
2022-09-09T08:40:23.670Z,-20598.25
2022-09-09T08:42:54.854Z,-20589.78
2022-09-09T08:45:37.567Z,-20575.69
2022-09-09T08:48:29.156Z,-20562.19
2022-09-09T08:51:02.959Z,-20557.94
2022-09-09T08:53:40.592Z,-20559.91
2022-09-09T08:56:16.296Z,-20573.09
2022-09-09T08:58:51.538Z,-20553.25
2022-09-09T09:01:45.431Z,-20582.19
2022-09-09T09:07:41.224Z,-20577.97
2022-09-09T09:11:10.538Z,-20573.41
2022-09-09T09:13:47.238Z,-20567.34
2022-09-09T09:16:28.181Z,-20596.16
2022-09-09T09:19:15.310Z,-20588.25
2022-09-09T09:21:45.879Z,-20599.94
2022-09-09T09:24:34.244Z,-20584.63
2022-09-09T09:30:29.941Z,-20569.00
2022-09-09T09:33:02.358Z,-20578.25
2022-09-09T09:35:44.843Z,-20582.66
2022-09-09T09:41:40.751Z,-20617.03
2022-09-09T09:44:26.224Z,-20584.31
2022-09-09T09:47:04.278Z,-20576.44
2022-09-09T09:49:37.314Z,-20584.78
2022-09-09T09:52:40.688Z,-20594.31
2022-09-09T09:59:18.046Z,-20623.25
2022-09-09T10:02:17.168Z,-20673.03
2022-09-09T10:04:46.414Z,-20707.59
2022-09-09T10:07:41.988Z,-20697.03
2022-09-09T10:10:20.139Z,-20683.00
2022-09-09T10:13:00.750Z,-20675.13
2022-09-09T10:15:44.593Z,-20659.72
2022-09-09T10:19:03.302Z,-20641.09
2022-09-09T10:22:15.272Z,-20658.81
2022-09-09T10:25:51.556Z,-20734.63
2022-09-09T10:28:51.046Z,-20734.00
2022-09-09T10:31:33.011Z,-20680.72
2022-09-09T10:34:14.451Z,-20687.81
2022-09-09T10:36:50.109Z,-20709.13
2022-09-09T10:39:33.604Z,-20687.38
2022-09-09T10:42:09.279Z,-20679.66
2022-09-09T10:45:03.188Z,-20680.56
2022-09-09T10:47:59.270Z,-20643.06
2022-09-09T10:51:00.509Z,-20608.72
2022-09-09T10:53:47.740Z,-20609.91
2022-09-09T10:56:39.227Z,-20598.25
2022-09-09T10:59:13.362Z,-20608.56
2022-09-09T11:01:54.989Z,-20607.03
2022-09-09T11:04:26.237Z,-20589.47
2022-09-09T11:07:08.466Z,-20596.28
2022-09-09T11:09:45.274Z,-20595.22
2022-09-09T11:12:23.202Z,-20595.22
2022-09-09T11:19:23.843Z,-20569.63
2022-09-09T11:22:19.904Z,-20557.47
2022-09-09T11:42:22.910Z,-20534.25
2022-09-09T11:49:19.137Z,-20516.97
2022-09-09T12:39:18.104Z,-20585.22
2022-09-09T12:42:32.799Z,-20580.22
2022-09-09T15:16:50.341Z,-20516.34
2022-09-09T15:19:18.904Z,-20509.38
2022-09-09T15:21:46.687Z,-20509.22
2022-09-09T15:24:14.779Z,-20509.66
2022-09-09T15:26:42.735Z,-20512.84
2022-09-09T15:29:11.356Z,-20523.34
2022-09-09T15:31:39.329Z,-20531.53
2022-09-09T15:34:09.434Z,-20547.00
2022-09-09T15:36:38.793Z,-20555.97
2022-09-09T15:39:10.753Z,-20552.47
2022-09-09T15:41:38.831Z,-20553.09
2022-09-09T15:44:06.679Z,-20556.13
2022-09-09T15:46:41.840Z,-20557.34
2022-09-09T15:49:27.553Z,-20557.63
2022-09-09T15:52:12.679Z,-20547.94
2022-09-09T15:54:41.123Z,-20546.72
2022-09-09T15:57:16.668Z,-20542.00
2022-09-09T15:59:46.459Z,-20535.19
2022-09-09T16:02:14.361Z,-20534.88
2022-09-09T16:04:45.911Z,-20523.94
2022-09-09T16:07:14.490Z,-20520.31
2022-09-09T16:09:44.337Z,-20517.13
2022-09-09T16:12:13.872Z,-20514.53
2022-09-09T16:14:42.292Z,-20513.00
2022-09-09T16:17:24.208Z,-20517.28
2022-09-09T16:19:58.810Z,-20517.28
2022-09-09T16:22:54.369Z,-20517.72
2022-09-09T16:25:23.006Z,-20516.66
2022-09-09T16:27:50.931Z,-20514.53
2022-09-09T16:30:21.235Z,-20516.97
2022-09-09T16:32:50.439Z,-20518.19
2022-09-09T16:38:05.182Z,-20513.31
2022-09-09T16:40:35.981Z,-20514.06
2022-09-09T16:43:03.856Z,-20514.84
2022-09-09T16:45:37.222Z,-20518.78
2022-09-09T16:48:05.278Z,-20524.09
2022-09-09T16:50:36.623Z,-20520.47
2022-09-09T16:53:09.821Z,-20521.50
2022-09-09T16:55:53.062Z,-20523.66
2022-09-09T16:58:24.285Z,-20524.84
2022-09-09T17:01:12.676Z,-20526.38
2022-09-09T17:03:50.858Z,-20528.34
2022-09-09T17:06:22.452Z,-20528.81
2022-09-09T17:09:14.102Z,-20527.44
2022-09-09T17:11:42.439Z,-20516.66
2022-09-09T17:14:16.501Z,-20511.50
2022-09-09T17:16:50.992Z,-20506.03
2022-09-09T17:19:19.991Z,-20485.97
2022-09-09T17:22:14.763Z,-20473.50
2022-09-09T17:24:39.860Z,-20463.75
2022-09-09T17:27:08.020Z,-20455.84
2022-09-09T17:29:37.072Z,-20449.16
2022-09-09T17:32:09.936Z,-20446.56
2022-09-09T17:34:38.894Z,-20438.81
2022-09-09T17:37:11.691Z,-20433.78
2022-09-09T17:39:44.835Z,-20424.34
2022-09-09T17:42:12.732Z,-20422.38
2022-09-09T17:44:41.117Z,-20421.47
2022-09-09T17:47:11.048Z,-20419.03
2022-09-09T17:49:55.791Z,-20411.88
2022-09-09T17:52:32.066Z,-20407.44
2022-09-09T17:55:00.878Z,-20406.84
2022-09-09T18:01:04.257Z,-20408.66
2022-09-09T18:03:38.832Z,-20413.38
2022-09-09T18:06:09.182Z,-20412.31
2022-09-09T18:08:38.409Z,-20414.16
2022-09-09T18:11:06.801Z,-20410.19
2022-09-09T18:13:35.239Z,-20410.97
2022-09-09T18:16:05.222Z,-20406.22
2022-09-09T18:18:33.052Z,-20398.00
2022-09-09T18:21:01.812Z,-20405.47
2022-09-09T18:23:31.474Z,-20403.50
2022-09-09T18:26:07.883Z,-20414.91
2022-09-09T18:28:36.222Z,-20414.16
2022-09-09T18:31:07.230Z,-20408.06
2022-09-09T18:33:37.684Z,-20404.25
2022-09-09T18:36:08.120Z,-20406.53
2022-09-09T18:38:59.851Z,-20407.16
2022-09-09T18:41:39.430Z,-20407.16
2022-09-09T18:44:15.733Z,-20411.09
2022-09-09T18:46:45.128Z,-20409.44
2022-09-09T18:49:18.266Z,-20405.31
2022-09-09T18:51:46.948Z,-20407.00
2022-09-09T18:54:17.448Z,-20408.97
2022-09-09T18:56:48.667Z,-20412.94
2022-09-09T18:59:33.709Z,-20410.50
2022-09-09T19:02:02.042Z,-20409.88
2022-09-09T19:04:29.939Z,-20413.25
2022-09-09T19:06:58.777Z,-20407.75
2022-09-09T19:09:29.523Z,-20405.31
2022-09-09T20:08:48.368Z,-20406.06
2022-09-09T21:22:46.064Z,-20418.41
2022-09-09T21:25:53.194Z,-20417.81
2022-09-09T21:28:36.840Z,-20415.66
2022-09-09T21:31:15.370Z,-20415.53
2022-09-09T21:33:47.715Z,-20406.84
2022-09-09T21:36:24.377Z,-20406.06
2022-09-09T21:39:06.455Z,-20392.66
2022-09-09T21:41:37.541Z,-20394.66
2022-09-09T21:44:05.719Z,-20392.22
2022-09-09T21:47:20.888Z,-20390.06
2022-09-09T21:49:48.930Z,-20394.94
2022-09-09T21:52:20.365Z,-20393.44
2022-09-09T21:54:49.693Z,-20394.03
2022-09-09T21:57:21.736Z,-20397.38
2022-09-09T22:00:02.911Z,-20399.84
2022-09-09T22:02:34.471Z,-20398.00
2022-09-09T22:08:44.975Z,-20397.84
2022-09-09T22:12:24.143Z,-20395.09
2022-09-09T22:14:54.335Z,-20394.94
2022-09-09T22:17:24.433Z,-20394.19
2022-09-09T22:19:54.305Z,-20398.16
2022-09-09T22:22:22.937Z,-20404.09
2022-09-09T22:24:57.187Z,-20405.31
2022-09-09T22:27:28.128Z,-20406.22
2022-09-09T22:30:04.150Z,-20408.34
2022-09-09T22:32:41.781Z,-20407.16
2022-09-09T22:35:13.534Z,-20409.13
2022-09-09T22:37:50.957Z,-20409.88
2022-09-09T22:40:23.463Z,-20406.38
2022-09-09T22:42:52.908Z,-20398.91
2022-09-09T22:45:30.398Z,-20395.72
2022-09-09T22:48:06.668Z,-20398.78
2022-09-09T22:50:42.502Z,-20396.63
2022-09-09T22:56:15.337Z,-20403.50
2022-09-09T22:58:43.338Z,-20399.69
2022-09-09T23:01:19.977Z,-20386.13
2022-09-09T23:04:02.982Z,-20397.38
2022-09-09T23:06:34.695Z,-20399.22
2022-09-09T23:09:06.765Z,-20397.38
2022-09-09T23:12:19.222Z,-20401.34
2022-09-09T23:15:10.149Z,-20403.19
2022-09-09T23:18:12.394Z,-20402.88
2022-09-09T23:20:40.535Z,-20401.34
2022-09-09T23:23:13.752Z,-20401.06
2022-09-09T23:26:33.754Z,-20395.41
2022-09-09T23:29:42.645Z,-20388.84
2022-09-09T23:32:52.763Z,-20397.84
2022-09-09T23:36:48.330Z,-20398.63
2022-09-09T23:40:08.594Z,-20399.97
2022-09-09T23:43:32.646Z,-20401.22
2022-09-09T23:46:55.513Z,-20401.22
2022-09-09T23:50:45.824Z,-20400.13
2022-09-09T23:57:35.659Z,-20395.88
